Time;durP1;ratioP1;P1;durP2;ratioP2;P2;SDS_P1;SDS_P2;PMS_P1;PMS_P2;Temp;Humidity;BMP_temperature;BMP_pressure;BME280_temperature;BME280_humidity;BME280_pressure;Samples;Min_cycle;Max_cycle;Signal;HPM_P1;HPM_P2
2023/10/06 00:01:48;;;;;;;8.70;5.78;;;13.20;99.90;;;;;;5049537;28;20211;-75
2023/10/06 00:04:15;;;;;;;9.45;5.35;;;13.20;99.90;;;;;;5045840;28;20211;-74
2023/10/06 00:06:42;;;;;;;10.48;6.30;;;13.20;99.90;;;;;;5032741;28;20239;-75
2023/10/06 00:09:28;;;;;;;10.23;6.10;;;13.20;99.90;;;;;;5046684;28;20184;-75
2023/10/06 00:11:55;;;;;;;9.20;5.30;;;13.10;99.90;;;;;;5028918;28;20244;-74
2023/10/06 00:14:39;;;;;;;6.28;5.07;;;13.20;99.90;;;;;;5049852;28;20211;-74
2023/10/06 00:17:28;;;;;;;14.57;6.63;;;13.20;99.90;;;;;;5041085;28;20582;-74
2023/10/06 00:19:55;;;;;;;8.48;5.35;;;13.20;99.90;;;;;;5036358;28;20211;-73
2023/10/06 00:22:26;;;;;;;12.20;5.90;;;13.20;99.90;;;;;;5028464;28;20262;-74
2023/10/06 00:24:55;;;;;;;9.45;5.15;;;13.20;99.90;;;;;;5046509;28;20204;-75
2023/10/06 00:27:29;;;;;;;12.45;5.68;;;13.20;99.90;;;;;;5045297;28;20195;-74
2023/10/06 00:29:55;;;;;;;7.63;5.35;;;13.30;99.90;;;;;;5046326;28;20211;-74
2023/10/06 00:35:07;;;;;;;8.85;5.47;;;13.40;99.90;;;;;;5049951;28;20200;-75
2023/10/06 00:37:35;;;;;;;8.93;5.40;;;13.40;99.90;;;;;;5048021;28;20880;-75
2023/10/06 00:40:01;;;;;;;6.88;4.20;;;13.40;99.90;;;;;;5028036;28;20633;-74
2023/10/06 00:42:27;;;;;;;7.28;4.93;;;13.50;99.90;;;;;;5048173;28;20203;-74
2023/10/06 00:44:53;;;;;;;9.15;4.95;;;13.50;99.90;;;;;;5041019;28;20202;-74
2023/10/06 00:47:21;;;;;;;8.98;4.75;;;13.60;99.90;;;;;;5028485;28;20243;-74
2023/10/06 00:49:46;;;;;;;15.07;6.55;;;13.60;99.90;;;;;;5043874;28;20578;-74
2023/10/06 00:52:15;;;;;;;7.15;4.50;;;13.60;99.90;;;;;;5048644;28;20216;-74
2023/10/06 00:54:44;;;;;;;8.60;5.47;;;13.60;99.90;;;;;;5027030;28;20210;-74
2023/10/06 00:57:18;;;;;;;9.52;5.55;;;13.60;99.90;;;;;;5020094;28;20180;-74
2023/10/06 00:59:44;;;;;;;11.27;5.45;;;13.60;99.90;;;;;;5030743;28;20222;-75
2023/10/06 01:02:11;;;;;;;7.35;4.88;;;13.60;99.90;;;;;;5045992;28;20223;-75
2023/10/06 01:04:42;;;;;;;7.25;4.53;;;13.60;99.90;;;;;;5045525;28;20718;-74
2023/10/06 01:07:08;;;;;;;9.63;5.40;;;13.60;99.90;;;;;;5047331;28;20633;-74
2023/10/06 01:09:33;;;;;;;8.50;5.00;;;13.60;99.90;;;;;;5027837;28;20187;-75
2023/10/06 01:12:02;;;;;;;11.57;5.75;;;13.70;99.90;;;;;;5046952;28;20278;-73
2023/10/06 01:14:29;;;;;;;7.95;5.65;;;13.60;99.90;;;;;;5028686;28;20212;-74
2023/10/06 01:17:16;;;;;;;10.18;5.18;;;13.60;99.90;;;;;;5044325;28;20215;-73
2023/10/06 01:19:48;;;;;;;8.98;5.30;;;13.70;99.90;;;;;;5044879;28;20210;-74
2023/10/06 01:22:30;;;;;;;11.15;5.88;;;13.70;99.90;;;;;;5045192;28;20207;-75
2023/10/06 01:24:58;;;;;;;10.68;5.28;;;13.70;99.90;;;;;;5040124;28;20204;-74
2023/10/06 01:27:27;;;;;;;7.10;5.45;;;13.80;99.90;;;;;;5044805;28;20394;-74
2023/10/06 01:30:17;;;;;;;10.38;6.18;;;13.70;99.90;;;;;;5048801;28;20255;-74
2023/10/06 01:32:41;;;;;;;11.48;6.07;;;13.80;99.90;;;;;;5046429;28;20739;-74
2023/10/06 01:35:12;;;;;;;11.38;6.70;;;13.80;99.90;;;;;;5027325;28;20725;-75
2023/10/06 01:37:44;;;;;;;11.75;7.03;;;13.80;99.90;;;;;;5026858;28;20200;-74
2023/10/06 01:42:52;;;;;;;12.27;7.07;;;13.80;99.90;;;;;;5043088;28;20596;-74
2023/10/06 01:45:21;;;;;;;15.52;7.03;;;13.90;99.90;;;;;;5049561;28;20179;-75
2023/10/06 01:47:54;;;;;;;10.95;6.72;;;13.80;99.90;;;;;;5049224;28;20199;-75
2023/10/06 01:50:20;;;;;;;12.32;7.47;;;13.90;99.90;;;;;;5044010;28;20211;-75
2023/10/06 01:52:46;;;;;;;11.73;7.10;;;13.90;99.90;;;;;;5030437;28;20710;-75
2023/10/06 01:55:12;;;;;;;12.05;7.32;;;13.80;99.90;;;;;;5045916;28;20207;-75
2023/10/06 01:57:39;;;;;;;12.68;7.30;;;13.80;99.90;;;;;;5043231;28;20218;-75
2023/10/06 02:00:14;;;;;;;13.75;7.03;;;13.90;99.90;;;;;;5045658;28;20178;-74
2023/10/06 02:02:40;;;;;;;14.18;7.28;;;13.90;99.90;;;;;;5029645;28;20226;-75
2023/10/06 02:05:12;;;;;;;14.13;7.18;;;13.90;99.90;;;;;;5049117;28;20200;-75
2023/10/06 02:07:40;;;;;;;11.95;6.78;;;13.90;99.90;;;;;;5044930;28;20247;-75
2023/10/06 02:10:15;;;;;;;12.18;7.55;;;13.90;99.90;;;;;;5039315;28;20273;-75
2023/10/06 02:12:41;;;;;;;9.77;6.47;;;13.90;99.90;;;;;;5029347;28;20736;-75
2023/10/06 02:15:10;;;;;;;8.43;6.05;;;13.90;99.90;;;;;;5044022;28;20812;-75
2023/10/06 02:17:40;;;;;;;13.30;5.90;;;13.90;99.90;;;;;;5030227;28;20219;-75
2023/10/06 02:20:41;;;;;;;10.77;6.10;;;13.90;99.90;;;;;;5029244;28;20214;-75
2023/10/06 02:22:59;;;;;;;11.35;6.10;;;13.90;99.90;;;;;;5045952;28;20713;-74
2023/10/06 02:25:25;;;;;;;12.23;6.38;;;14.00;99.90;;;;;;5048884;28;20211;-74
2023/10/06 02:27:52;;;;;;;10.13;6.07;;;14.00;99.90;;;;;;5048806;28;20277;-75
2023/10/06 02:30:25;;;;;;;9.13;5.85;;;14.00;99.90;;;;;;5034713;28;20196;-75
2023/10/06 02:32:53;;;;;;;10.57;6.35;;;14.00;99.90;;;;;;5033600;28;20253;-75
2023/10/06 02:35:19;;;;;;;11.25;7.45;;;13.90;99.90;;;;;;5047879;28;20207;-74
2023/10/06 02:37:49;;;;;;;9.15;6.63;;;14.00;99.90;;;;;;5034900;28;20223;-75
2023/10/06 02:40:16;;;;;;;10.55;6.38;;;14.00;99.90;;;;;;5082280;22;20238;-73
2023/10/06 02:42:51;;;;;;;11.48;7.00;;;14.00;99.90;;;;;;5067087;28;20211;-73
2023/10/06 02:45:30;;;;;;;10.82;6.93;;;14.00;99.90;;;;;;5069792;28;20556;-73
2023/10/06 02:47:59;;;;;;;12.02;6.80;;;14.00;99.90;;;;;;5068110;28;20269;-75
2023/10/06 02:50:24;;;;;;;9.48;6.45;;;14.00;99.90;;;;;;5070870;28;20604;-73
2023/10/06 02:52:56;;;;;;;11.75;6.53;;;14.00;99.90;;;;;;5070606;28;20203;-74
2023/10/06 02:55:31;;;;;;;12.70;7.32;;;14.10;99.90;;;;;;5071963;28;20203;-73
2023/10/06 02:57:58;;;;;;;12.88;7.07;;;14.10;99.90;;;;;;5072138;28;20268;-73
2023/10/06 03:03:12;;;;;;;13.60;8.10;;;14.10;99.90;;;;;;5073167;28;20171;-73
2023/10/06 03:05:49;;;;;;;15.07;7.80;;;14.10;99.90;;;;;;5052303;28;20214;-73
2023/10/06 03:08:18;;;;;;;13.27;7.25;;;14.10;99.90;;;;;;5053582;28;20207;-74
2023/10/06 03:10:44;;;;;;;14.57;8.13;;;14.10;99.90;;;;;;5054042;28;20236;-73
2023/10/06 03:13:16;;;;;;;11.90;7.35;;;14.10;99.90;;;;;;5070718;28;20227;-74
2023/10/06 03:15:46;;;;;;;12.63;8.18;;;14.10;99.90;;;;;;5054821;28;20297;-74
2023/10/06 03:18:16;;;;;;;11.77;7.70;;;14.10;99.90;;;;;;5051072;28;20175;-75
2023/10/06 03:21:13;;;;;;;13.55;8.38;;;14.10;99.90;;;;;;5053260;28;20226;-74
2023/10/06 03:23:39;;;;;;;15.35;8.50;;;14.10;99.90;;;;;;5071652;28;20719;-74
2023/10/06 03:26:51;;;;;;;14.18;8.27;;;14.10;99.90;;;;;;5056574;28;20214;-74
2023/10/06 03:28:53;;;;;;;13.70;8.50;;;14.10;99.90;;;;;;5064315;28;20206;-74
2023/10/06 03:33:46;;;;;;;14.00;8.23;;;14.10;99.90;;;;;;5070017;28;20305;-73
2023/10/06 03:36:15;;;;;;;15.50;8.35;;;14.10;99.90;;;;;;5071047;28;20182;-74
2023/10/06 03:38:44;;;;;;;11.90;7.60;;;14.10;99.90;;;;;;5062885;28;20294;-73
2023/10/06 03:41:19;;;;;;;12.68;8.02;;;14.10;99.90;;;;;;5071310;28;20222;-73
2023/10/06 03:43:53;;;;;;;11.57;8.00;;;14.10;99.90;;;;;;5068590;28;20236;-74
2023/10/06 03:46:23;;;;;;;11.25;8.57;;;14.10;99.90;;;;;;5053420;28;20585;-75
2023/10/06 03:48:50;;;;;;;15.02;8.55;;;14.10;99.90;;;;;;5074512;28;20211;-75
2023/10/06 03:51:17;;;;;;;14.38;8.32;;;14.10;99.90;;;;;;5074961;28;20685;-73
2023/10/06 03:53:45;;;;;;;19.77;9.25;;;14.20;99.90;;;;;;5055577;28;20176;-74
2023/10/06 03:56:12;;;;;;;16.15;8.95;;;14.10;99.90;;;;;;5069494;28;20214;-74
2023/10/06 03:58:38;;;;;;;15.40;9.45;;;14.10;99.90;;;;;;5073442;28;20210;-74
2023/10/06 04:01:11;;;;;;;15.00;9.18;;;14.10;99.90;;;;;;5071819;28;20265;-73
2023/10/06 04:03:38;;;;;;;16.15;8.63;;;14.10;99.90;;;;;;5052469;28;20211;-74
2023/10/06 04:06:04;;;;;;;12.23;7.65;;;14.10;99.90;;;;;;5071478;28;20199;-76
2023/10/06 04:08:30;;;;;;;16.17;9.45;;;14.10;99.90;;;;;;5071177;28;20206;-74
2023/10/06 04:10:59;;;;;;;19.05;9.48;;;14.10;99.90;;;;;;5071389;28;20211;-74
2023/10/06 04:13:25;;;;;;;17.90;9.10;;;14.20;99.90;;;;;;5070055;28;20203;-75
2023/10/06 04:15:56;;;;;;;15.65;9.25;;;14.10;99.90;;;;;;5068176;28;20297;-75
2023/10/06 04:18:24;;;;;;;19.42;9.48;;;14.00;99.90;;;;;;5052721;28;20180;-77
2023/10/06 04:20:54;;;;;;;15.80;9.25;;;13.90;99.90;;;;;;5052040;28;20190;-75
2023/10/06 04:23:23;;;;;;;14.88;9.38;;;13.90;99.90;;;;;;5054311;28;20202;-75
2023/10/06 04:25:54;;;;;;;14.15;9.27;;;13.90;99.90;;;;;;5055025;28;20199;-75
2023/10/06 04:28:25;;;;;;;15.32;8.98;;;13.90;99.90;;;;;;5049282;28;20577;-73
2023/10/06 04:30:51;;;;;;;15.90;9.25;;;13.90;99.90;;;;;;5050107;28;20297;-74
2023/10/06 04:33:18;;;;;;;17.40;8.95;;;13.80;99.90;;;;;;5052972;28;20213;-74
2023/10/06 04:38:45;;;;;;;16.05;10.00;;;13.90;99.90;;;;;;5024951;28;20214;-73
2023/10/06 04:41:11;;;;;;;16.20;9.38;;;13.90;99.90;;;;;;5069956;28;20261;-74
2023/10/06 04:43:37;;;;;;;15.50;9.68;;;13.80;99.90;;;;;;5069191;28;20613;-74
2023/10/06 04:46:06;;;;;;;15.00;8.73;;;13.80;99.90;;;;;;5069399;28;20210;-73
2023/10/06 04:48:38;;;;;;;17.27;9.93;;;13.70;99.90;;;;;;5070069;28;20255;-75
2023/10/06 04:51:09;;;;;;;16.80;9.80;;;13.70;99.90;;;;;;5063621;28;20195;-72
2023/10/06 04:53:36;;;;;;;16.02;9.10;;;13.70;99.90;;;;;;5053142;28;20290;-74
2023/10/06 04:56:08;;;;;;;17.15;9.40;;;13.70;99.90;;;;;;5050610;28;20207;-72
2023/10/06 04:58:38;;;;;;;19.75;10.60;;;13.70;99.90;;;;;;5073167;28;20624;-73
2023/10/06 05:01:07;;;;;;;16.33;9.70;;;13.60;99.90;;;;;;5061531;28;20215;-73
2023/10/06 05:03:45;;;;;;;16.70;10.02;;;13.60;99.90;;;;;;5040979;28;20184;-74
2023/10/06 05:06:21;;;;;;;15.38;9.73;;;13.60;99.90;;;;;;5067850;28;20281;-75
2023/10/06 05:08:47;;;;;;;19.60;10.60;;;13.60;99.90;;;;;;5053219;28;20230;-73
2023/10/06 05:11:17;;;;;;;21.50;10.65;;;13.60;99.90;;;;;;5070587;28;20198;-75
2023/10/06 05:13:43;;;;;;;19.10;11.88;;;13.60;99.90;;;;;;5051925;28;20213;-72
2023/10/06 05:16:11;;;;;;;17.33;10.95;;;13.50;99.90;;;;;;5072610;28;20637;-74
2023/10/06 05:18:38;;;;;;;19.83;10.57;;;13.60;99.90;;;;;;5052263;28;20366;-73
2023/10/06 05:21:06;;;;;;;19.55;11.65;;;13.60;99.90;;;;;;5052079;28;20195;-71
2023/10/06 05:23:34;;;;;;;19.58;11.02;;;13.60;99.90;;;;;;5071047;28;20760;-74
2023/10/06 05:26:04;;;;;;;17.58;10.85;;;13.60;99.90;;;;;;5070723;28;20708;-73
2023/10/06 05:28:31;;;;;;;21.83;11.38;;;13.60;99.90;;;;;;5071537;28;20203;-74
2023/10/06 05:30:57;;;;;;;18.95;10.52;;;13.70;99.90;;;;;;5062420;28;20207;-74
2023/10/06 05:33:22;;;;;;;22.13;11.95;;;13.70;99.90;;;;;;5070016;28;20657;-74
2023/10/06 05:35:48;;;;;;;17.02;11.05;;;13.70;99.90;;;;;;5065875;28;20176;-75
2023/10/06 05:38:14;;;;;;;17.65;10.65;;;13.80;99.90;;;;;;5056923;28;20232;-74
2023/10/06 05:40:52;;;;;;;19.90;11.07;;;13.80;99.90;;;;;;5071644;28;20699;-74
2023/10/06 05:43:18;;;;;;;16.73;10.18;;;13.80;99.90;;;;;;5066632;28;20202;-73
2023/10/06 05:45:51;;;;;;;14.85;9.48;;;13.80;99.90;;;;;;5054511;28;20574;-74
2023/10/06 05:48:20;;;;;;;18.85;10.20;;;13.90;99.90;;;;;;5052019;28;20170;-75
2023/10/06 05:50:48;;;;;;;21.08;10.63;;;13.80;99.90;;;;;;5054662;28;20198;-72
2023/10/06 05:53:19;;;;;;;16.65;10.18;;;13.90;99.90;;;;;;5052572;28;20195;-74
2023/10/06 05:55:49;;;;;;;14.43;9.43;;;14.00;99.90;;;;;;5065304;28;20318;-74
2023/10/06 05:58:19;;;;;;;16.65;9.57;;;14.10;99.90;;;;;;5069138;28;20207;-74
2023/10/06 06:00:50;;;;;;;19.27;9.80;;;14.20;99.90;;;;;;5051995;28;20565;-74
2023/10/06 06:03:20;;;;;;;18.60;10.48;;;14.50;99.90;;;;;;5044924;28;20194;-74
2023/10/06 06:05:50;;;;;;;16.45;9.45;;;14.90;99.90;;;;;;5065158;28;20345;-72
2023/10/06 06:08:15;;;;;;;13.50;8.77;;;15.20;99.90;;;;;;5065973;28;20257;-75
2023/10/06 06:10:41;;;;;;;13.65;7.75;;;15.90;99.90;;;;;;5069434;28;20207;-73
2023/10/06 06:13:07;;;;;;;11.95;7.93;;;16.30;99.90;;;;;;5071890;28;20205;-74
2023/10/06 06:15:35;;;;;;;11.68;7.28;;;16.70;99.90;;;;;;5066428;28;20179;-73
2023/10/06 06:18:01;;;;;;;10.20;6.97;;;16.90;99.90;;;;;;5068311;28;20178;-74
2023/10/06 06:20:29;;;;;;;9.95;6.88;;;16.90;99.90;;;;;;5070750;28;20309;-74
2023/10/06 06:23:02;;;;;;;7.30;5.93;;;17.20;99.90;;;;;;5071967;28;20549;-74
2023/10/06 06:25:28;;;;;;;8.07;5.68;;;17.40;99.90;;;;;;5072113;28;20213;-73
2023/10/06 06:27:55;;;;;;;9.85;5.88;;;18.10;99.90;;;;;;5055400;28;20250;-72
2023/10/06 06:30:23;;;;;;;8.18;6.15;;;18.90;99.90;;;;;;5051512;28;20202;-74
2023/10/06 06:32:49;;;;;;;5.82;4.93;;;19.40;99.90;;;;;;5055207;28;20556;-73
2023/10/06 06:35:19;;;;;;;5.82;4.68;;;19.80;99.90;;;;;;5045982;28;20203;-74
2023/10/06 06:37:45;;;;;;;6.30;4.90;;;18.60;99.90;;;;;;5059492;28;20256;-73
2023/10/06 06:40:13;;;;;;;7.25;4.85;;;18.50;99.90;;;;;;5069366;28;20711;-75
2023/10/06 06:42:40;;;;;;;6.88;5.30;;;18.30;99.90;;;;;;5060935;28;20222;-74
2023/10/06 06:45:06;;;;;;;8.05;5.80;;;17.80;99.90;;;;;;5068741;28;20175;-73
2023/10/06 06:47:32;;;;;;;7.75;5.72;;;17.30;99.90;;;;;;5050643;28;20207;-74
2023/10/06 06:50:00;;;;;;;8.75;5.50;;;17.10;99.90;;;;;;5073697;28;20747;-73
2023/10/06 06:52:26;;;;;;;10.73;6.50;;;16.80;99.90;;;;;;5055163;28;20207;-73
2023/10/06 06:54:51;;;;;;;9.52;6.43;;;16.50;99.90;;;;;;5069477;28;20206;-72
2023/10/06 06:57:17;;;;;;;8.32;5.97;;;16.20;99.90;;;;;;5061487;28;20175;-74
2023/10/06 06:59:44;;;;;;;8.93;6.13;;;16.10;99.90;;;;;;5052151;28;20278;-75
2023/10/06 07:02:10;;;;;;;7.22;6.00;;;16.20;99.90;;;;;;5046418;28;20213;-74
2023/10/06 07:04:36;;;;;;;11.38;6.38;;;16.50;99.90;;;;;;5072799;28;20806;-73
2023/10/06 07:07:02;;;;;;;10.00;6.18;;;16.60;99.90;;;;;;5064964;28;20226;-74
2023/10/06 07:09:27;;;;;;;9.57;6.55;;;16.80;99.90;;;;;;5070157;28;20199;-74
2023/10/06 07:11:57;;;;;;;6.90;5.18;;;16.70;99.90;;;;;;5074040;28;20215;-71
2023/10/06 07:14:23;;;;;;;10.68;6.60;;;16.70;99.90;;;;;;5051411;28;20203;-74
2023/10/06 07:16:48;;;;;;;9.98;7.28;;;16.70;99.90;;;;;;5054620;28;20294;-74
2023/10/06 07:19:17;;;;;;;9.48;6.20;;;16.80;99.90;;;;;;5071330;28;20298;-74
2023/10/06 07:21:44;;;;;;;9.35;5.97;;;16.50;99.90;;;;;;5071212;28;20229;-73
2023/10/06 07:24:13;;;;;;;7.57;5.97;;;16.90;99.90;;;;;;5072029;28;20230;-72
2023/10/06 07:26:42;;;;;;;8.10;6.35;;;17.40;99.90;;;;;;5072145;28;20233;-74
2023/10/06 07:29:08;;;;;;;11.27;6.07;;;17.40;99.90;;;;;;5075360;28;20591;-74
2023/10/06 07:31:34;;;;;;;8.80;6.38;;;17.50;99.90;;;;;;5054525;28;20195;-74
2023/10/06 07:34:02;;;;;;;8.77;5.97;;;17.40;99.90;;;;;;5054354;28;20229;-73
2023/10/06 07:36:28;;;;;;;8.60;5.68;;;17.30;99.90;;;;;;5069380;28;20178;-73
2023/10/06 07:38:54;;;;;;;7.43;5.63;;;17.00;99.90;;;;;;5070684;28;20182;-73
2023/10/06 07:41:23;;;;;;;11.18;5.68;;;17.10;99.90;;;;;;5071635;28;20233;-74
2023/10/06 07:43:49;;;;;;;8.38;6.10;;;17.40;99.90;;;;;;5070039;28;20207;-76
2023/10/06 07:46:16;;;;;;;9.10;5.32;;;17.90;99.90;;;;;;5072424;28;20276;-74
2023/10/06 07:48:44;;;;;;;6.95;4.28;;;18.70;99.90;;;;;;5073424;28;20207;-73
2023/10/06 07:51:16;;;;;;;10.02;5.10;;;19.40;99.90;;;;;;5073566;28;20203;-74
2023/10/06 07:53:43;;;;;;;10.65;5.05;;;20.00;99.90;;;;;;5054129;28;20678;-74
2023/10/06 07:56:09;;;;;;;5.95;4.30;;;20.10;99.90;;;;;;5053219;28;20269;-74
2023/10/06 07:58:41;;;;;;;8.57;5.22;;;20.10;99.90;;;;;;5054616;28;20298;-73
2023/10/06 08:01:08;;;;;;;7.30;4.15;;;19.90;99.90;;;;;;5051992;28;20599;-73
2023/10/06 08:03:37;;;;;;;7.57;4.70;;;19.80;99.90;;;;;;5067702;28;20266;-74
2023/10/06 08:06:06;;;;;;;6.10;4.40;;;20.20;99.90;;;;;;5070352;28;20179;-75
2023/10/06 08:08:35;;;;;;;5.47;4.07;;;20.70;99.90;;;;;;5058669;28;20731;-75
2023/10/06 08:11:02;;;;;;;6.35;3.78;;;21.20;99.90;;;;;;5069576;28;20210;-73
2023/10/06 08:13:30;;;;;;;5.90;3.85;;;21.40;99.90;;;;;;5070434;28;20203;-74
2023/10/06 08:15:59;;;;;;;6.15;3.78;;;20.90;99.90;;;;;;5069122;28;20215;-74
2023/10/06 08:18:28;;;;;;;6.97;3.40;;;20.60;99.90;;;;;;5055571;28;20203;-73
2023/10/06 08:20:54;;;;;;;10.02;4.78;;;20.30;99.90;;;;;;5052765;28;20677;-71
2023/10/06 08:23:20;;;;;;;8.85;4.45;;;19.70;99.90;;;;;;5072836;28;20601;-75
2023/10/06 08:25:46;;;;;;;4.85;3.70;;;19.10;99.90;;;;;;5072739;28;20821;-74
2023/10/06 08:28:12;;;;;;;4.35;3.47;;;18.90;99.90;;;;;;5071339;28;20302;-74
2023/10/06 08:30:38;;;;;;;5.70;3.95;;;19.00;99.90;;;;;;5072830;28;20289;-75
2023/10/06 08:33:08;;;;;;;6.47;4.03;;;19.40;99.90;;;;;;5072283;28;20184;-74
2023/10/06 08:35:36;;;;;;;6.40;3.92;;;19.70;99.90;;;;;;5070113;28;20253;-75
2023/10/06 08:38:02;;;;;;;7.50;3.92;;;19.80;99.90;;;;;;5070774;28;20666;-72
2023/10/06 08:40:29;;;;;;;5.93;4.28;;;19.30;99.90;;;;;;5063491;28;20717;-75
2023/10/06 08:42:56;;;;;;;4.97;3.53;;;19.10;99.90;;;;;;5069837;28;20309;-72
2023/10/06 08:45:27;;;;;;;5.50;3.50;;;18.60;99.90;;;;;;5067253;28;20209;-76
2023/10/06 08:47:58;;;;;;;7.10;3.90;;;18.80;99.90;;;;;;5069528;28;20396;-74
2023/10/06 08:50:27;;;;;;;5.88;3.67;;;19.10;99.90;;;;;;5054357;28;20214;-74
2023/10/06 08:52:54;;;;;;;8.60;4.32;;;19.00;99.90;;;;;;5074969;28;20211;-74
2023/10/06 08:55:23;;;;;;;6.53;3.47;;;19.30;99.90;;;;;;5054357;28;20207;-75
2023/10/06 08:57:50;;;;;;;7.70;4.05;;;19.30;99.90;;;;;;5049511;28;20210;-74
2023/10/06 09:00:24;;;;;;;5.90;3.75;;;19.00;99.90;;;;;;5068541;28;20202;-74
2023/10/06 09:02:52;;;;;;;7.93;5.50;;;18.90;99.90;;;;;;5069760;28;20171;-74
2023/10/06 09:05:18;;;;;;;4.88;3.42;;;19.00;99.90;;;;;;5051095;28;20203;-75
2023/10/06 09:08:05;;;;;;;6.45;3.53;;;18.70;99.90;;;;;;5069815;28;20211;-74
2023/10/06 09:10:40;;;;;;;5.60;3.83;;;18.70;99.90;;;;;;5051773;28;20729;-74
2023/10/06 09:13:16;;;;;;;6.35;4.05;;;19.00;99.90;;;;;;5067766;28;20217;-74
2023/10/06 09:16:06;;;;;;;6.28;3.70;;;19.10;99.90;;;;;;5060484;28;20210;-74
2023/10/06 09:18:34;;;;;;;5.30;3.28;;;19.00;99.90;;;;;;5064591;28;20253;-75
2023/10/06 09:21:19;;;;;;;5.93;3.33;;;18.70;99.90;;;;;;5045972;28;20206;-75
2023/10/06 09:23:46;;;;;;;4.63;3.17;;;19.00;99.90;;;;;;5066354;28;20230;-74
2023/10/06 09:26:15;;;;;;;7.28;3.50;;;19.20;99.90;;;;;;5070668;28;20230;-73
2023/10/06 09:28:59;;;;;;;5.78;3.05;;;19.20;99.90;;;;;;5050892;28;20214;-73
2023/10/06 09:31:44;;;;;;;5.50;2.80;;;19.20;99.90;;;;;;5067345;28;20202;-74
2023/10/06 09:34:11;;;;;;;6.85;2.42;;;19.00;99.90;;;;;;5072863;28;20210;-73
2023/10/06 09:36:38;;;;;;;4.60;2.78;;;19.30;99.90;;;;;;5051268;28;20217;-73
2023/10/06 09:39:13;;;;;;;4.45;2.67;;;19.40;99.90;;;;;;5071887;28;20853;-74
2023/10/06 09:41:39;;;;;;;4.80;2.72;;;19.40;99.90;;;;;;5069377;28;20237;-74
2023/10/06 09:44:09;;;;;;;4.22;2.63;;;19.50;99.90;;;;;;5069718;28;20227;-74
2023/10/06 09:46:35;;;;;;;5.97;2.80;;;19.40;99.90;;;;;;5068829;28;20217;-74
2023/10/06 09:49:05;;;;;;;2.92;2.22;;;19.10;99.90;;;;;;5066697;28;20214;-75
2023/10/06 09:51:32;;;;;;;3.65;1.98;;;19.00;99.90;;;;;;5067465;28;20183;-74
2023/10/06 09:53:58;;;;;;;3.88;2.10;;;19.50;99.90;;;;;;5049815;28;20170;-74
2023/10/06 09:56:24;;;;;;;2.83;1.95;;;19.70;99.90;;;;;;5056609;28;20215;-74
2023/10/06 09:58:51;;;;;;;3.97;2.22;;;20.00;99.90;;;;;;5052642;28;20206;-74
2023/10/06 10:01:20;;;;;;;4.97;1.80;;;19.90;99.90;;;;;;5074538;28;20272;-73
2023/10/06 10:03:47;;;;;;;3.97;2.05;;;19.90;99.90;;;;;;5069681;28;20762;-74
2023/10/06 10:06:16;;;;;;;3.67;1.88;;;20.00;99.90;;;;;;5075589;28;20677;-74
2023/10/06 10:08:41;;;;;;;2.85;1.63;;;19.90;99.90;;;;;;5071458;28;20203;-74
2023/10/06 10:11:14;;;;;;;4.25;2.25;;;19.90;99.90;;;;;;5068241;28;20608;-74
2023/10/06 10:14:27;;;;;;;2.70;1.73;;;19.80;99.90;;;;;;5066849;28;20215;-72
2023/10/06 10:16:59;;;;;;;5.38;2.15;;;20.00;99.90;;;;;;4989821;28;20211;-74
2023/10/06 10:19:27;;;;;;;2.88;1.63;;;20.00;99.90;;;;;;5070225;28;20215;-74
2023/10/06 10:21:58;;;;;;;2.80;1.90;;;20.00;99.90;;;;;;5069403;28;20211;-73
2023/10/06 10:24:25;;;;;;;2.40;1.85;;;19.90;99.90;;;;;;5059615;28;20178;-74
2023/10/06 10:26:54;;;;;;;2.85;1.77;;;19.70;99.90;;;;;;5069498;28;20197;-74
2023/10/06 10:29:19;;;;;;;2.67;1.45;;;19.40;99.90;;;;;;5066358;28;20237;-74
2023/10/06 10:32:18;;;;;;;2.17;1.70;;;19.50;99.90;;;;;;5077727;28;20349;-74
2023/10/06 10:35:12;;;;;;;1.98;1.42;;;19.40;99.90;;;;;;5056258;28;20195;-74
2023/10/06 10:37:56;;;;;;;2.75;1.77;;;19.40;99.90;;;;;;5069617;28;20782;-73
2023/10/06 10:40:29;;;;;;;3.50;1.67;;;19.30;99.90;;;;;;5067519;28;20237;-74
2023/10/06 10:43:05;;;;;;;3.85;1.70;;;19.30;99.90;;;;;;5051707;28;20580;-72
2023/10/06 10:45:36;;;;;;;5.53;2.58;;;19.30;99.90;;;;;;5076792;28;20648;-73
2023/10/06 10:48:13;;;;;;;5.40;1.90;;;19.20;99.90;;;;;;5072145;28;20289;-74
2023/10/06 10:51:00;;;;;;;2.38;1.67;;;19.10;99.90;;;;;;5070117;28;20203;-73
2023/10/06 10:53:36;;;;;;;5.85;2.90;;;19.20;99.90;;;;;;5051371;28;20391;-74
2023/10/06 10:56:02;;;;;;;5.78;2.47;;;19.00;99.90;;;;;;5072101;28;20206;-74
2023/10/06 10:58:49;;;;;;;3.20;2.08;;;19.00;99.90;;;;;;5071455;28;20719;-73
2023/10/06 11:01:22;;;;;;;4.35;2.30;;;19.10;99.90;;;;;;5069141;28;20215;-72
2023/10/06 11:04:08;;;;;;;4.35;2.55;;;19.20;99.90;;;;;;5051956;28;20253;-74
2023/10/06 11:06:36;;;;;;;1.83;1.50;;;19.30;99.90;;;;;;5076640;28;20260;-74
2023/10/06 11:09:12;;;;;;;4.88;2.00;;;19.30;99.90;;;;;;5069625;28;20253;-74
2023/10/06 11:11:39;;;;;;;2.22;1.48;;;19.30;99.90;;;;;;5074942;28;20687;-73
2023/10/06 11:14:05;;;;;;;3.97;2.30;;;19.40;99.90;;;;;;5070585;28;20264;-73
2023/10/06 11:16:32;;;;;;;3.90;1.58;;;19.50;99.90;;;;;;5076436;28;20280;-74
2023/10/06 11:19:03;;;;;;;6.68;2.70;;;19.50;99.90;;;;;;5074888;28;20207;-74
2023/10/06 11:21:30;;;;;;;2.42;1.65;;;19.50;99.90;;;;;;5069707;28;20209;-74
2023/10/06 11:23:58;;;;;;;6.10;3.33;;;19.60;99.90;;;;;;5078518;28;20703;-73
2023/10/06 11:26:33;;;;;;;4.85;2.42;;;19.70;99.90;;;;;;5074031;28;20308;-74
2023/10/06 11:29:00;;;;;;;3.47;1.73;;;19.60;99.90;;;;;;5070842;28;20211;-74
2023/10/06 11:31:27;;;;;;;2.83;1.77;;;19.80;99.90;;;;;;5074692;28;20211;-74
2023/10/06 11:33:54;;;;;;;3.00;1.75;;;19.80;99.90;;;;;;5071875;28;21615;-73
2023/10/06 11:36:20;;;;;;;2.88;1.63;;;19.90;99.90;;;;;;5051169;28;20234;-75
2023/10/06 11:38:47;;;;;;;3.05;1.90;;;19.80;99.90;;;;;;5068381;28;20174;-72
2023/10/06 11:41:22;;;;;;;3.85;1.15;;;19.80;99.90;;;;;;5069987;28;20214;-74
2023/10/06 11:43:54;;;;;;;2.17;1.70;;;19.90;99.90;;;;;;5067901;28;20206;-74
2023/10/06 11:46:20;;;;;;;1.85;1.50;;;20.00;99.90;;;;;;5071310;28;20234;-72
2023/10/06 11:48:46;;;;;;;2.97;1.60;;;20.20;99.90;;;;;;5078536;28;20210;-72
2023/10/06 11:51:15;;;;;;;2.78;1.75;;;20.20;99.90;;;;;;5054469;28;20264;-75
2023/10/06 11:53:41;;;;;;;2.88;1.77;;;20.20;99.90;;;;;;5074642;28;20288;-74
2023/10/06 11:56:12;;;;;;;2.97;1.48;;;20.10;99.90;;;;;;5050638;28;20219;-75
2023/10/06 11:58:40;;;;;;;2.33;1.17;;;20.00;99.90;;;;;;5073105;28;20211;-74
2023/10/06 12:01:29;;;;;;;2.88;1.27;;;19.90;99.90;;;;;;5054947;28;20214;-72
2023/10/06 12:03:59;;;;;;;2.45;1.65;;;20.00;99.90;;;;;;5070363;28;20260;-71
2023/10/06 12:06:27;;;;;;;4.28;1.65;;;20.10;99.90;;;;;;5072930;28;20195;-73
2023/10/06 12:08:53;;;;;;;3.22;1.77;;;20.10;99.90;;;;;;5071281;28;20175;-73
2023/10/06 12:11:21;;;;;;;4.00;1.52;;;20.10;99.90;;;;;;5068002;28;20286;-73
2023/10/06 12:13:47;;;;;;;3.13;1.42;;;19.80;99.90;;;;;;5071466;28;20256;-74
2023/10/06 12:16:14;;;;;;;2.10;1.25;;;19.70;99.90;;;;;;5051522;28;20238;-74
2023/10/06 12:18:43;;;;;;;2.28;1.40;;;19.90;99.90;;;;;;5077239;28;20268;-73
2023/10/06 12:21:11;;;;;;;2.00;1.48;;;19.80;99.90;;;;;;5053624;28;20199;-73
2023/10/06 12:23:37;;;;;;;7.40;3.13;;;19.80;99.90;;;;;;5069643;28;20239;-73
2023/10/06 12:26:05;;;;;;;3.08;1.98;;;19.80;99.90;;;;;;5066595;28;20207;-73
2023/10/06 12:28:31;;;;;;;5.10;1.67;;;19.80;99.90;;;;;;5052771;28;20242;-75
2023/10/06 12:30:57;;;;;;;2.47;1.67;;;19.80;99.90;;;;;;5068906;28;20522;-74
2023/10/06 12:33:23;;;;;;;2.35;1.55;;;19.80;99.90;;;;;;5069957;28;20258;-74
2023/10/06 12:35:52;;;;;;;3.65;1.65;;;19.70;99.90;;;;;;5068291;28;20229;-74
2023/10/06 12:38:18;;;;;;;4.78;1.95;;;19.60;99.90;;;;;;5069390;28;20304;-73
2023/10/06 12:40:46;;;;;;;3.22;1.77;;;19.50;99.90;;;;;;5069984;28;20802;-74
2023/10/06 12:43:13;;;;;;;2.88;1.40;;;19.50;99.90;;;;;;5051494;28;20199;-74
2023/10/06 12:45:38;;;;;;;2.70;1.55;;;19.40;99.90;;;;;;5064195;28;20685;-74
2023/10/06 12:48:04;;;;;;;4.63;2.13;;;19.40;99.90;;;;;;5070860;28;20213;-74
2023/10/06 12:50:30;;;;;;;3.70;1.75;;;19.50;99.90;;;;;;5068279;28;20207;-74
2023/10/06 12:52:56;;;;;;;2.83;1.30;;;19.50;99.90;;;;;;5052498;28;20774;-75
2023/10/06 12:55:24;;;;;;;7.05;2.30;;;19.50;99.90;;;;;;5073256;28;20203;-75
2023/10/06 12:57:51;;;;;;;4.25;1.70;;;19.60;99.90;;;;;;5069109;28;20214;-75
2023/10/06 13:00:19;;;;;;;2.95;1.50;;;19.60;99.90;;;;;;5056108;28;20289;-75
2023/10/06 13:02:47;;;;;;;1.90;1.35;;;19.50;99.90;;;;;;5049795;28;20566;-74
2023/10/06 13:05:16;;;;;;;2.35;1.20;;;19.50;99.90;;;;;;5069600;28;20285;-75
2023/10/06 13:07:46;;;;;;;2.17;1.15;;;19.60;99.90;;;;;;5051360;28;20229;-75
2023/10/06 13:10:13;;;;;;;3.45;1.60;;;19.50;99.90;;;;;;5069879;28;20214;-75